createdAt,value
2018-02-13T00:00:26.732Z,14.65
2018-02-13T00:02:54.384Z,11.60
2018-02-13T00:05:25.398Z,13.18
2018-02-13T00:07:53.201Z,17.17
2018-02-13T00:10:22.791Z,23.08
2018-02-13T00:12:52.900Z,21.05
2018-02-13T00:15:21.672Z,21.15
2018-02-13T00:17:51.921Z,20.10
2018-02-13T00:20:22.944Z,14.77
2018-02-13T00:22:50.512Z,17.45
2018-02-13T00:25:19.065Z,21.20
2018-02-13T00:27:46.664Z,19.67
2018-02-13T00:30:16.815Z,16.33
2018-02-13T00:32:46.019Z,19.73
2018-02-13T00:35:15.232Z,24.12
2018-02-13T00:37:44.447Z,17.60
2018-02-13T00:40:13.714Z,19.73
2018-02-13T00:42:42.931Z,15.13
2018-02-13T00:45:12.157Z,20.65
2018-02-13T00:47:41.383Z,15.10
2018-02-13T00:50:10.640Z,16.52
2018-02-13T00:52:39.855Z,21.50
2018-02-13T00:55:09.077Z,19.00
2018-02-13T00:57:38.327Z,17.10
2018-02-13T01:00:07.574Z,17.95
2018-02-13T01:02:36.820Z,16.27
2018-02-13T01:05:06.077Z,18.75
2018-02-13T01:07:35.274Z,18.58
2018-02-13T01:10:04.535Z,17.98
2018-02-13T01:12:33.752Z,14.45
2018-02-13T01:15:02.982Z,15.70
2018-02-13T01:17:32.196Z,18.65
2018-02-13T01:20:01.459Z,12.40
2018-02-13T01:22:30.701Z,18.87
2018-02-13T01:24:59.920Z,12.23
2018-02-13T01:27:28.832Z,17.40
2018-02-13T01:29:57.797Z,20.02
2018-02-13T01:32:26.707Z,14.75
2018-02-13T01:34:55.650Z,17.83
2018-02-13T01:37:24.638Z,12.32
2018-02-13T01:39:53.599Z,20.48
2018-02-13T01:42:22.565Z,13.48
2018-02-13T01:44:51.524Z,23.05
2018-02-13T01:47:20.627Z,13.55
2018-02-13T01:49:51.768Z,16.75
2018-02-13T01:52:20.832Z,15.35
2018-02-13T01:54:53.663Z,15.75
2018-02-13T01:57:23.931Z,17.15
2018-02-13T01:59:55.120Z,14.27
2018-02-13T02:02:28.683Z,19.85
2018-02-13T02:05:00.065Z,14.32
2018-02-13T02:07:33.449Z,19.62
2018-02-13T02:10:09.096Z,16.87
2018-02-13T02:12:38.196Z,16.42
2018-02-13T02:15:08.671Z,13.60
2018-02-13T02:17:42.146Z,14.00
2018-02-13T02:20:15.318Z,14.00
2018-02-13T02:22:44.350Z,13.82
2018-02-13T02:25:13.328Z,15.43
2018-02-13T02:27:42.322Z,20.25
2018-02-13T02:30:13.459Z,13.90
2018-02-13T02:32:42.446Z,17.33
2018-02-13T02:35:13.469Z,11.90
2018-02-13T02:37:42.521Z,16.75
2018-02-13T02:40:11.589Z,17.87
2018-02-13T02:42:46.388Z,14.23
2018-02-13T02:45:20.766Z,11.18
2018-02-13T02:47:49.752Z,13.68
2018-02-13T02:50:18.759Z,17.60
2018-02-13T02:52:49.060Z,16.52
2018-02-13T02:55:22.188Z,17.58
2018-02-13T02:57:52.966Z,15.25
2018-02-13T03:00:24.053Z,12.27
2018-02-13T03:02:54.439Z,17.20
2018-02-13T03:05:23.430Z,13.15
2018-02-13T03:07:52.467Z,12.55
2018-02-13T03:10:22.813Z,13.20
2018-02-13T03:12:51.822Z,20.08
2018-02-13T03:15:22.166Z,15.90
2018-02-13T03:17:51.194Z,17.55
2018-02-13T03:20:20.197Z,12.75
2018-02-13T03:22:49.302Z,14.73
2018-02-13T03:25:18.388Z,21.52
2018-02-13T03:27:47.420Z,14.18
2018-02-13T03:30:16.466Z,12.63
2018-02-13T03:32:45.541Z,15.65
2018-02-13T03:35:14.596Z,14.25
2018-02-13T03:37:43.615Z,14.50
2018-02-13T03:40:12.634Z,10.38
2018-02-13T03:42:42.319Z,13.32
2018-02-13T03:45:11.323Z,12.88
2018-02-13T03:47:40.367Z,15.27
2018-02-13T03:50:09.425Z,13.18
2018-02-13T03:52:39.980Z,12.37
2018-02-13T03:55:09.027Z,11.40
2018-02-13T03:57:38.086Z,13.88
2018-02-13T04:00:07.135Z,13.68
2018-02-13T04:02:36.186Z,15.55
2018-02-13T04:05:05.231Z,9.15
2018-02-13T04:07:34.304Z,13.95
2018-02-13T04:10:03.406Z,13.60
2018-02-13T04:12:32.651Z,15.07
2018-02-13T04:15:03.241Z,12.32
2018-02-13T04:17:32.391Z,13.75
2018-02-13T04:20:01.611Z,15.10
2018-02-13T04:22:30.807Z,18.17
2018-02-13T04:24:59.946Z,12.00
2018-02-13T04:27:29.092Z,10.93
2018-02-13T04:29:58.230Z,11.52
2018-02-13T04:32:27.374Z,12.20
2018-02-13T04:34:56.564Z,13.75
2018-02-13T04:37:25.713Z,12.25
2018-02-13T04:39:54.840Z,18.60
2018-02-13T04:42:23.917Z,9.50
2018-02-13T04:44:53.188Z,12.50
2018-02-13T04:47:22.272Z,15.48
2018-02-13T04:49:51.323Z,14.40
2018-02-13T04:52:20.465Z,7.05
2018-02-13T04:54:49.538Z,11.95
2018-02-13T04:57:18.619Z,13.07
2018-02-13T04:59:47.699Z,18.33
2018-02-13T05:02:17.509Z,16.48
2018-02-13T05:04:46.605Z,12.52
2018-02-13T05:07:15.773Z,9.23
2018-02-13T05:09:44.986Z,14.80
2018-02-13T05:12:14.167Z,11.05
2018-02-13T05:14:43.373Z,12.27
2018-02-13T05:17:12.553Z,14.27
2018-02-13T05:19:41.846Z,12.95
2018-02-13T05:22:11.099Z,12.18
2018-02-13T05:24:46.691Z,16.37
2018-02-13T05:27:15.951Z,15.20
2018-02-13T05:29:45.445Z,13.05
2018-02-13T05:32:14.650Z,8.18
2018-02-13T05:34:43.884Z,8.02
2018-02-13T05:37:13.101Z,14.90
2018-02-13T05:39:42.353Z,10.23
2018-02-13T05:42:11.558Z,15.57
2018-02-13T05:44:40.824Z,9.93
2018-02-13T05:47:10.083Z,11.30
2018-02-13T05:49:39.514Z,13.18
2018-02-13T05:52:08.749Z,15.27
2018-02-13T05:54:37.958Z,10.98
2018-02-13T05:57:07.160Z,11.43
2018-02-13T05:59:36.427Z,12.32
2018-02-13T06:02:05.779Z,17.83
2018-02-13T06:04:34.990Z,21.10
2018-02-13T06:07:04.195Z,11.52
2018-02-13T06:09:33.423Z,14.65
2018-02-13T06:12:02.655Z,15.55
2018-02-13T06:14:31.939Z,14.98
2018-02-13T06:17:01.162Z,15.18
2018-02-13T06:19:30.362Z,10.13
2018-02-13T06:21:59.575Z,8.63
2018-02-13T06:24:28.820Z,12.10
2018-02-13T06:26:58.049Z,21.77
2018-02-13T06:29:27.267Z,10.15
2018-02-13T06:31:56.757Z,15.50
2018-02-13T06:34:26.141Z,18.10
2018-02-13T06:36:55.364Z,22.02
2018-02-13T06:39:24.790Z,10.95
2018-02-13T06:41:53.994Z,16.87
2018-02-13T06:44:23.215Z,13.90
2018-02-13T06:46:52.443Z,14.10
2018-02-13T06:49:21.642Z,16.73
2018-02-13T06:51:50.876Z,17.45
2018-02-13T06:54:20.085Z,12.23
2018-02-13T06:56:49.284Z,9.43
2018-02-13T06:59:18.502Z,11.50
2018-02-13T07:01:47.711Z,11.25
2018-02-13T07:04:16.915Z,9.23
2018-02-13T07:06:46.118Z,11.50
2018-02-13T07:09:15.368Z,12.93
2018-02-13T07:11:44.577Z,15.90
2018-02-13T07:14:13.774Z,12.18
2018-02-13T07:16:42.979Z,7.97
2018-02-13T07:19:12.240Z,12.77
2018-02-13T07:21:41.473Z,10.88
2018-02-13T07:24:10.673Z,8.77
2018-02-13T07:26:39.881Z,12.23
2018-02-13T07:29:09.118Z,13.43
2018-02-13T07:31:38.354Z,11.45
2018-02-13T07:34:07.571Z,19.15
2018-02-13T07:36:36.796Z,11.40
2018-02-13T07:39:06.001Z,14.98
2018-02-13T07:41:35.260Z,11.43
2018-02-13T07:44:04.468Z,16.05
2018-02-13T07:46:33.728Z,18.10
2018-02-13T07:49:02.935Z,17.10
2018-02-13T07:51:32.161Z,13.45
2018-02-13T07:54:01.428Z,11.65
2018-02-13T07:56:30.655Z,12.68
2018-02-13T07:58:59.962Z,10.50
2018-02-13T08:01:29.271Z,10.30
2018-02-13T08:03:59.116Z,19.75
2018-02-13T08:06:28.353Z,12.45
2018-02-13T08:08:58.362Z,10.50
2018-02-13T08:11:27.574Z,19.37
2018-02-13T08:13:56.800Z,15.43
2018-02-13T08:16:26.007Z,12.20
2018-02-13T08:18:55.362Z,12.95
2018-02-13T08:21:24.554Z,13.88
2018-02-13T08:23:53.774Z,14.35
2018-02-13T08:26:24.521Z,16.90
2018-02-13T08:28:53.719Z,11.55
2018-02-13T08:31:22.936Z,17.92
2018-02-13T08:33:52.206Z,10.80
2018-02-13T08:36:21.422Z,11.43
2018-02-13T08:38:50.643Z,15.13
2018-02-13T08:41:19.843Z,11.30
2018-02-13T08:43:49.056Z,11.27
2018-02-13T08:46:18.298Z,14.43
2018-02-13T08:48:47.522Z,12.10
2018-02-13T08:51:16.732Z,15.02
2018-02-13T08:53:45.922Z,15.80
2018-02-13T08:56:15.119Z,21.73
2018-02-13T08:58:44.340Z,11.27
2018-02-13T09:01:13.547Z,15.25
2018-02-13T09:03:42.743Z,16.80
2018-02-13T09:06:11.942Z,13.07
2018-02-13T09:08:41.190Z,15.02
2018-02-13T09:11:10.470Z,13.35
2018-02-13T09:13:39.823Z,13.45
2018-02-13T09:16:09.264Z,17.15
2018-02-13T09:18:38.493Z,13.13
2018-02-13T09:21:07.846Z,12.30
2018-02-13T09:23:37.245Z,12.35
2018-02-13T09:26:06.446Z,15.48
2018-02-13T09:28:35.678Z,14.85
2018-02-13T09:31:04.946Z,12.25
2018-02-13T09:33:34.178Z,14.13
2018-02-13T09:36:03.520Z,12.50
2018-02-13T09:38:32.768Z,21.95
2018-02-13T09:41:02.027Z,18.08
2018-02-13T09:43:31.286Z,11.25
2018-02-13T09:46:00.529Z,14.38
2018-02-13T09:48:29.758Z,12.27
2018-02-13T09:50:58.980Z,12.77
2018-02-13T09:53:28.225Z,16.65
2018-02-13T09:55:57.458Z,20.70
2018-02-13T09:58:26.684Z,10.68
2018-02-13T10:00:55.908Z,13.18
2018-02-13T10:03:25.192Z,11.82
2018-02-13T10:05:54.427Z,19.70
2018-02-13T10:08:23.649Z,10.40
2018-02-13T10:10:52.920Z,12.60
2018-02-13T10:13:22.151Z,10.07
2018-02-13T10:15:51.360Z,6.07
2018-02-13T10:18:20.615Z,6.95
2018-02-13T10:20:48.196Z,4.53
2018-02-13T10:23:15.747Z,9.68
2018-02-13T10:25:43.312Z,9.02
2018-02-13T10:28:10.968Z,5.57
2018-02-13T10:30:39.339Z,5.32
2018-02-13T10:33:06.879Z,3.00
2018-02-13T10:35:34.475Z,3.97
2018-02-13T10:38:02.025Z,9.18
2018-02-13T10:40:29.592Z,6.00
2018-02-13T10:42:57.180Z,6.37
2018-02-13T10:45:24.860Z,3.90
2018-02-13T10:47:52.412Z,4.62
2018-02-13T10:50:19.999Z,2.78
2018-02-13T10:52:47.632Z,9.70
2018-02-13T10:55:15.210Z,1.87
2018-02-13T10:57:42.883Z,1.23
2018-02-13T11:00:10.568Z,8.52
2018-02-13T11:02:38.123Z,4.28
2018-02-13T11:05:05.731Z,7.25
2018-02-13T11:07:33.279Z,5.18
2018-02-13T11:10:00.891Z,4.43
2018-02-13T11:12:28.467Z,4.22
2018-02-13T11:14:56.065Z,5.53
2018-02-13T11:17:24.378Z,2.60
2018-02-13T11:19:51.997Z,3.35
2018-02-13T11:22:19.557Z,4.12
2018-02-13T11:24:47.116Z,7.68
2018-02-13T11:27:15.449Z,3.33
2018-02-13T11:29:43.805Z,5.85
2018-02-13T11:32:11.432Z,3.65
2018-02-13T11:34:39.015Z,2.00
2018-02-13T11:37:06.679Z,4.80
2018-02-13T11:39:35.011Z,5.25
2018-02-13T11:42:02.788Z,7.45
2018-02-13T11:44:30.375Z,7.72
2018-02-13T11:46:58.171Z,5.90
2018-02-13T11:49:26.032Z,4.10
2018-02-13T11:51:53.719Z,5.10
2018-02-13T11:54:21.325Z,2.90
2018-02-13T11:56:49.647Z,5.57
2018-02-13T11:59:17.212Z,2.87
2018-02-13T12:01:44.789Z,4.43
2018-02-13T12:04:12.401Z,5.40
2018-02-13T12:06:39.963Z,6.30
2018-02-13T12:09:07.572Z,6.65
2018-02-13T12:11:35.910Z,4.28
2018-02-13T12:14:03.472Z,3.05
2018-02-13T12:16:31.086Z,4.70
2018-02-13T12:18:58.639Z,6.15
2018-02-13T12:21:27.893Z,4.07
2018-02-13T12:23:57.486Z,5.35
2018-02-13T12:26:26.710Z,1.95
2018-02-13T12:28:55.927Z,3.75
2018-02-13T12:31:25.143Z,5.85
2018-02-13T12:33:54.370Z,2.80
2018-02-13T12:36:23.598Z,12.48
2018-02-13T12:38:52.830Z,4.50
2018-02-13T12:41:22.104Z,1.75
2018-02-13T12:43:51.439Z,6.32
2018-02-13T12:46:21.047Z,12.90
2018-02-13T12:48:50.306Z,9.80
2018-02-13T12:51:19.719Z,3.43
2018-02-13T12:53:48.919Z,5.87
2018-02-13T12:56:18.142Z,4.60
2018-02-13T12:58:47.392Z,11.27
2018-02-13T13:01:16.677Z,7.17
2018-02-13T13:03:46.029Z,4.37
2018-02-13T13:06:15.322Z,3.97
2018-02-13T13:08:44.537Z,3.33
2018-02-13T13:11:13.574Z,5.43
2018-02-13T13:13:42.669Z,6.73
2018-02-13T13:16:11.896Z,6.30
2018-02-13T13:18:41.122Z,8.73
2018-02-13T13:21:10.523Z,5.63
2018-02-13T13:23:39.660Z,4.27
2018-02-13T13:26:08.845Z,8.67
2018-02-13T13:28:37.972Z,9.10
2018-02-13T13:31:07.091Z,4.30
2018-02-13T13:33:36.280Z,6.30
2018-02-13T13:36:05.327Z,4.70
2018-02-13T13:38:34.476Z,4.20
2018-02-13T13:41:03.592Z,7.80
2018-02-13T13:43:32.703Z,7.50
2018-02-13T13:46:02.037Z,7.20
2018-02-13T13:48:31.150Z,6.83
2018-02-13T13:51:00.317Z,3.87
2018-02-13T13:53:29.408Z,4.43
2018-02-13T13:55:58.548Z,3.87
2018-02-13T13:58:27.830Z,3.80
2018-02-13T14:01:02.318Z,6.00
2018-02-13T14:03:39.676Z,2.60
2018-02-13T14:06:09.616Z,8.67
2018-02-13T14:08:44.355Z,4.97
2018-02-13T14:11:13.231Z,8.30
2018-02-13T14:13:43.635Z,4.63
2018-02-13T14:16:12.613Z,5.80
2018-02-13T14:18:51.418Z,4.17
2018-02-13T14:21:20.486Z,7.20
2018-02-13T14:23:51.449Z,5.10
2018-02-13T14:26:27.010Z,2.63
2018-02-13T14:28:55.915Z,4.40
2018-02-13T14:31:27.671Z,4.60
2018-02-13T14:34:00.984Z,3.03
2018-02-13T14:36:29.970Z,2.53
2018-02-13T14:39:03.430Z,5.00
2018-02-13T14:41:32.674Z,3.07
2018-02-13T14:44:01.852Z,3.57
2018-02-13T14:46:31.029Z,10.13
2018-02-13T14:49:00.157Z,5.10
2018-02-13T14:51:29.419Z,3.90
2018-02-13T14:53:58.565Z,4.00
2018-02-13T14:56:27.901Z,4.80
2018-02-13T14:58:57.142Z,6.47
2018-02-13T15:01:26.453Z,5.33
2018-02-13T15:03:55.674Z,3.80
2018-02-13T15:06:26.996Z,4.30
2018-02-13T15:08:56.466Z,8.23
2018-02-13T15:11:25.784Z,4.87
2018-02-13T15:13:55.016Z,6.77
2018-02-13T15:16:24.304Z,9.20
2018-02-13T15:18:53.496Z,9.30
2018-02-13T15:21:22.656Z,7.93
2018-02-13T15:23:52.909Z,6.83
2018-02-13T15:26:22.177Z,6.43
2018-02-13T15:28:51.303Z,6.23
2018-02-13T15:31:21.103Z,5.10
2018-02-13T15:33:50.671Z,4.80
2018-02-13T15:36:19.802Z,7.73
2018-02-13T15:38:48.204Z,6.70
2018-02-13T15:41:15.996Z,4.17
2018-02-13T15:43:43.784Z,9.63
2018-02-13T15:46:12.917Z,6.70
2018-02-13T15:48:41.669Z,7.10
2018-02-13T15:51:09.169Z,6.45
2018-02-13T15:53:36.816Z,4.60
2018-02-13T15:56:04.543Z,7.55
2018-02-13T15:58:32.650Z,7.28
2018-02-13T16:01:00.933Z,11.70
2018-02-13T16:03:28.443Z,10.25
2018-02-13T16:05:57.315Z,7.47
2018-02-13T16:08:24.928Z,5.07
2018-02-13T16:10:53.469Z,5.62
2018-02-13T16:13:21.689Z,7.35
2018-02-13T16:15:50.369Z,6.78
2018-02-13T16:18:18.617Z,5.00
2018-02-13T16:20:46.128Z,8.73
2018-02-13T16:23:13.620Z,4.45
2018-02-13T16:25:42.903Z,11.15
2018-02-13T16:28:12.050Z,9.90
2018-02-13T16:30:40.799Z,15.10
2018-02-13T16:33:08.287Z,7.72
2018-02-13T16:35:36.174Z,5.35
2018-02-13T16:38:04.920Z,11.10
2018-02-13T16:40:32.884Z,7.68
2018-02-13T16:43:00.626Z,10.15
2018-02-13T16:45:32.541Z,17.55
2018-02-13T16:48:01.319Z,12.13
2018-02-13T16:50:28.892Z,14.32
2018-02-13T16:52:56.437Z,12.18
2018-02-13T16:55:25.590Z,10.60
2018-02-13T16:57:53.285Z,12.45
2018-02-13T17:00:27.290Z,11.70
2018-02-13T17:02:54.904Z,7.53
2018-02-13T17:05:23.194Z,11.52
2018-02-13T17:07:50.693Z,11.70
2018-02-13T17:10:18.941Z,9.93
2018-02-13T17:12:46.458Z,11.60
2018-02-13T17:15:14.712Z,13.70
2018-02-13T17:17:42.211Z,13.85
2018-02-13T17:20:09.703Z,23.65
2018-02-13T17:22:37.188Z,19.70
2018-02-13T17:25:04.859Z,14.87
2018-02-13T17:27:32.341Z,9.88
2018-02-13T17:29:59.867Z,11.68
2018-02-13T17:32:28.279Z,8.25
2018-02-13T17:34:55.869Z,8.90
2018-02-13T17:37:28.645Z,17.52
2018-02-13T17:39:56.589Z,8.80
2018-02-13T17:42:24.179Z,12.32
2018-02-13T17:44:52.911Z,20.05
2018-02-13T17:47:20.487Z,14.87
2018-02-13T17:49:48.012Z,10.00
2018-02-13T17:52:16.701Z,8.90
2018-02-13T17:54:44.194Z,14.98
2018-02-13T17:57:12.448Z,12.60
2018-02-13T17:59:39.953Z,14.48
2018-02-13T18:02:07.568Z,11.35
2018-02-13T18:04:35.096Z,15.65
2018-02-13T18:07:03.460Z,18.98
2018-02-13T18:09:30.972Z,12.37
2018-02-13T18:11:59.212Z,21.37
2018-02-13T18:14:30.674Z,23.00
2018-02-13T18:17:07.021Z,14.38
2018-02-13T18:19:37.129Z,11.23
2018-02-13T18:22:06.937Z,11.15
2018-02-13T18:24:34.439Z,11.70
2018-02-13T18:27:02.407Z,16.10
2018-02-13T18:29:32.273Z,12.00
2018-02-13T18:31:59.736Z,15.05
2018-02-13T18:34:27.302Z,14.77
2018-02-13T18:36:55.181Z,22.13
2018-02-13T18:39:25.000Z,14.43
2018-02-13T18:41:52.591Z,14.20
2018-02-13T18:44:23.841Z,13.57
2018-02-13T18:46:52.906Z,12.68
2018-02-13T18:49:21.173Z,13.32
2018-02-13T18:51:48.661Z,24.75
2018-02-13T18:54:16.954Z,13.40
2018-02-13T18:56:45.218Z,19.52
2018-02-13T18:59:12.714Z,14.75
2018-02-13T19:01:40.982Z,14.70
2018-02-13T19:04:08.459Z,17.00
2018-02-13T19:06:35.970Z,15.55
2018-02-13T19:09:03.536Z,14.38
2018-02-13T19:11:31.024Z,16.75
2018-02-13T19:13:58.546Z,16.25
2018-02-13T19:16:26.072Z,20.02
2018-02-13T19:18:53.610Z,14.50
2018-02-13T19:21:23.146Z,17.35
2018-02-13T19:23:50.646Z,18.80
2018-02-13T19:26:18.140Z,16.80
2018-02-13T19:28:45.681Z,20.25
2018-02-13T19:31:13.196Z,18.27
2018-02-13T19:33:41.465Z,20.58
2018-02-13T19:36:08.977Z,15.75
2018-02-13T19:38:36.502Z,20.00
2018-02-13T19:41:03.993Z,17.40
2018-02-13T19:43:31.693Z,16.33
2018-02-13T19:46:00.824Z,16.45
2018-02-13T19:48:28.357Z,18.48
2018-02-13T19:50:55.854Z,16.45
2018-02-13T19:53:23.446Z,16.58
2018-02-13T19:55:50.941Z,15.82
2018-02-13T19:58:18.481Z,15.40
2018-02-13T20:00:45.980Z,14.10
2018-02-13T20:03:13.457Z,13.18
2018-02-13T20:05:41.072Z,15.00
2018-02-13T20:08:09.333Z,17.55
2018-02-13T20:10:36.858Z,12.90
2018-02-13T20:13:04.360Z,14.60
2018-02-13T20:15:31.858Z,19.62
2018-02-13T20:17:59.763Z,14.93
2018-02-13T20:20:27.389Z,17.55
2018-02-13T20:22:54.950Z,12.98
2018-02-13T20:25:22.512Z,19.35
2018-02-13T20:27:50.043Z,15.07
2018-02-13T20:30:17.562Z,19.08
2018-02-13T20:32:45.058Z,15.07
2018-02-13T20:35:12.602Z,16.23
2018-02-13T20:37:40.113Z,22.40
2018-02-13T20:40:07.592Z,14.23
2018-02-13T20:42:35.887Z,21.27
2018-02-13T20:45:04.178Z,18.87
2018-02-13T20:47:32.572Z,12.30
2018-02-13T20:50:00.849Z,21.92
2018-02-13T20:52:29.168Z,15.77
2018-02-13T20:54:56.972Z,14.85
2018-02-13T20:57:24.687Z,22.35
2018-02-13T20:59:53.199Z,20.58
2018-02-13T21:02:20.745Z,20.30
2018-02-13T21:04:48.272Z,13.90
2018-02-13T21:07:17.185Z,15.13
2018-02-13T21:09:44.685Z,18.65
2018-02-13T21:12:12.862Z,15.02
2018-02-13T21:14:41.159Z,20.95
2018-02-13T21:17:11.310Z,20.30
2018-02-13T21:19:38.959Z,21.30
2018-02-13T21:22:07.261Z,20.33
2018-02-13T21:24:35.502Z,19.60
2018-02-13T21:27:03.129Z,19.65
2018-02-13T21:29:30.626Z,20.40
2018-02-13T21:31:58.301Z,17.17
2018-02-13T21:34:25.861Z,24.12
2018-02-13T21:36:54.140Z,28.67
2018-02-13T21:39:23.461Z,22.95
2018-02-13T21:41:54.419Z,20.52
2018-02-13T21:44:22.012Z,15.88
2018-02-13T21:46:52.792Z,15.07
2018-02-13T21:49:27.466Z,23.05
2018-02-13T21:51:55.173Z,16.12
2018-02-13T21:54:24.605Z,16.33
2018-02-13T21:57:03.865Z,19.33
2018-02-13T21:59:31.588Z,17.10
2018-02-13T22:02:02.867Z,15.00
2018-02-13T22:04:31.372Z,21.12
2018-02-13T22:07:00.198Z,19.98
2018-02-13T22:09:28.430Z,16.08
2018-02-13T22:11:55.989Z,14.98
2018-02-13T22:14:23.795Z,14.63
2018-02-13T22:16:52.432Z,20.48
2018-02-13T22:19:20.854Z,20.95
2018-02-13T22:21:48.350Z,19.80
2018-02-13T22:24:16.669Z,19.87
2018-02-13T22:26:44.374Z,24.90
2018-02-13T22:29:11.913Z,20.95
2018-02-13T22:31:39.405Z,16.62
2018-02-13T22:34:06.942Z,16.05
2018-02-13T22:36:34.579Z,20.77
2018-02-13T22:39:05.006Z,19.25
2018-02-13T22:41:34.184Z,21.15
2018-02-13T22:44:06.158Z,23.50
2018-02-13T22:46:33.873Z,23.50
2018-02-13T22:49:02.259Z,22.40
2018-02-13T22:51:31.284Z,18.17
2018-02-13T22:53:59.414Z,25.10
2018-02-13T22:56:26.979Z,17.87
2018-02-13T22:58:54.933Z,17.50
2018-02-13T23:01:23.845Z,25.55
2018-02-13T23:03:53.140Z,20.02
2018-02-13T23:06:21.680Z,17.52
2018-02-13T23:08:58.964Z,17.62
2018-02-13T23:11:27.398Z,15.50
2018-02-13T23:14:02.969Z,18.02
2018-02-13T23:16:30.572Z,19.73
2018-02-13T23:19:01.747Z,17.08
2018-02-13T23:21:29.257Z,21.52
2018-02-13T23:23:56.997Z,21.60
2018-02-13T23:26:24.568Z,14.60
2018-02-13T23:28:58.114Z,25.02
2018-02-13T23:31:27.306Z,23.35
2018-02-13T23:34:00.426Z,21.33
2018-02-13T23:36:29.732Z,23.17
2018-02-13T23:38:58.546Z,21.48
2018-02-13T23:41:32.069Z,20.85
2018-02-13T23:44:00.469Z,23.65
2018-02-13T23:46:32.766Z,20.62
2018-02-13T23:49:01.150Z,19.05
2018-02-13T23:51:29.541Z,24.98
2018-02-13T23:53:57.058Z,15.02
2018-02-13T23:56:24.555Z,26.02
2018-02-13T23:58:52.877Z,19.90
